Terminal Aerodrome Forecast
Issued by NWS

Home | Current Version | Previous Version | Graphics & Text | Print | Product List | Glossary On
Versions: 1 2 3 4 5 6 7 8 9 10 11 12
000
FTUS45 KGGW 251128
TAFGDV
TAF
KGDV 251128Z 2512/2612 20006KT P6SM BKN120
     FM251800 30010KT P6SM BKN090
     FM260000 30006KT P6SM OVC080
     FM260900 24004KT P6SM BKN050=

USA.gov is the U.S. government's official web portal to all federal, state and local government web resources and services.